Kezdőlap
METAR-TAF:

METAR-TAF

Repülőterek :

Jacksonville Municipal Airport

Jacksonville, Illinois, Amerikai Egyesült Államok

földrajzi szélesség: 39-46-27N, földrajzi hosszúság: 090-14-19W, magasság: 190 m

Jelenlegi meteorológiai megfigyelések

A jelentés 16 perccel ezelõtt készült, 10:15 UTC
Keleti szél 6 kt
Hőmérséklet 23°C
Páratartalom 83%
Légköri nyomás 1016 hPa
Látótávolság: 16.1 km
Szórványos felhőzet 8500 lábon
Szakadozott felhőzet 12000 lábon

METAR: KIJX 031015Z AUTO 08006KT 10SM SCT085 BKN120 23/20 A3000 RMK AO2 T02300197

Idő: 05:31 (10:31 UTC)


TAF: hiányzik

Meteorológiai megfigyelések és előrejelzések több, mint 4000 repülőtéren (METAR és TAF jelentéseket).

A térképen piros és sárga pontok jelzik az elérhető meteorológiai állomásokat.

Mozgassa az egeret a pont fölött, hogy megjelenjen az állomás neve.

Azután kattintson az időjárási megfigyelések és előrejelzések megtekintéséhez.

A térkép megváltoztatása: kattintson a fekete keresztel jelölt zöld gombra ráközelítéshez, a vonallal jelölt zöld gombra távolításhoz, vagy a zöld nyilakra a szomszédos térképek eléréséhez.


METAR-TAF: